Saturday, July 21, 2018, 3:36 PM EDT
Back to Local

KLGA, New York La Guardia Airport

Location: Astoria, NY, United States Lat: 40.783
Local Time: 3:36 PM EDT (19:36 GMT) Lon: -73.883
Time Zone: US/Eastern Elev: 22 ft

Show me the last for .
Show Coded

Time T Td Feel RH Dir Speed Gust Alt SLP Vis Weather Sky Remarks
2018-07-21 14:51 75 62 78 64 50° 18 - 30.03 30.03 10 FEW043 SCT150 BKN260 None
2018-07-21 13:51 76 59 78 55 50° 21 - 30.05 30.04 10 FEW046 SCT150 BKN260 6-hr Min Temp (2pm): 73.0°F
6-hr Max Temp (2pm): 79.0°F
2018-07-21 12:51 75 59 78 57 50° 15 - 30.07 30.06 10 SCT047 BKN150 BKN260 None
2018-07-21 11:51 77 56 78 48 100° 15 - 30.07 30.07 10 SCT044 BKN200 BKN260 None
2018-07-21 10:51 77 54 78 44 120° 17 - 30.08 30.08 10 FEW035 SCT150 BKN250 None
2018-07-21 09:51 75 52 77 44 80° 13 - 30.09 30.09 10 FEW035 SCT150 BKN250 None
2018-07-21 08:51 74 57 77 55 90° 14 - 30.09 30.08 10 FEW032 SCT150 BKN240 None
2018-07-21 07:51 72 58 76 61 90° 13 - 30.08 30.08 10 FEW035 SCT150 BKN230 BKN280 6-hr Min Temp (8am): 69.1°F
6-hr Max Temp (8am): 73.0°F
2018-07-21 06:51 71 59 76 65 90° 9 - 30.08 30.08 10 FEW034 SCT150 BKN240 BKN280 None
2018-07-21 05:51 69 60 - 73 70° 6 - 30.08 30.08 10 FEW033 BKN150 BKN250 None
2018-07-21 04:51 70 60 - 70 80° 6 - 30.09 30.08 10 FEW033 SCT150 SCT250 None
2018-07-21 03:51 72 58 76 61 120° 6 - 30.09 30.09 10 FEW031 SCT150 SCT250 None
2018-07-21 02:51 73 58 77 59 170° 6 - 30.09 30.09 10 FEW032 BKN160 BKN250 None
2018-07-21 01:51 73 57 77 57 150° 9 - 30.09 30.09 10 FEW033 BKN150 BKN250 6-hr Min Temp (2am): 73.0°F
6-hr Max Temp (2am): 77.0°F
2018-07-21 00:51 73 57 77 57 180° 8 - 30.11 30.11 10 FEW035 BKN150 BKN250 24-hr Min Temp (1am): 70.0°F
24-hr Max Temp (1am): 84.0°F
2018-07-20 23:51 74 57 77 55 170° 9 - 30.11 30.11 10 FEW040 BKN150 BKN250 None
2018-07-20 22:51 74 56 77 53 170° 10 - 30.12 30.12 10 SCT150 BKN250 None
2018-07-20 21:51 75 57 77 53 160° 9 - 30.12 30.12 10 FEW150 BKN250 None
2018-07-20 20:51 76 58 78 53 140° 10 - 30.12 30.11 10 FEW160 SCT250 None
2018-07-20 19:51 76 57 78 52 170° 12 - 30.12 30.11 10 FEW060 SCT180 SCT250 6-hr Min Temp (8pm): 75.9°F
6-hr Max Temp (8pm): 84.0°F
2018-07-20 18:51 79 55 79 43 170° 14 18 30.11 30.11 10 FEW060 SCT250 None
2018-07-20 17:51 81 52 - 36 150° 13 22 30.11 30.11 10 FEW070 SCT250 None
2018-07-20 16:51 82 50 - 32 140° 10 - 30.12 30.12 10 FEW060 SCT250 None
2018-07-20 15:51 82 51 - 34 140° 8 18 30.13 30.13 10 FEW060 SCT250 None

Support USWX by starting your Amazon purchase here.